Time;durP1;ratioP1;P1;durP2;ratioP2;P2;SDS_P1;SDS_P2;PMS_P1;PMS_P2;Temp;Humidity;BMP_temperature;BMP_pressure;BME280_temperature;BME280_humidity;BME280_pressure;Samples;Min_cycle;Max_cycle;Signal;HPM_P1;HPM_P2
2022/05/06 00:02:10;;;;;;;24.60;13.57;;;;;;;11.65;82.56;102675.72;5045608;28;20392;-62
2022/05/06 00:04:35;;;;;;;25.88;13.43;;;;;;;11.61;82.52;102678.38;5047385;28;20036;-61
2022/05/06 00:07:01;;;;;;;23.05;10.98;;;;;;;11.66;82.31;102677.47;5047168;28;20021;-61
2022/05/06 00:09:26;;;;;;;28.05;11.70;;;;;;;11.72;82.44;102680.94;5047306;28;20418;-61
2022/05/06 00:11:52;;;;;;;32.03;12.45;;;;;;;11.70;82.43;102679.19;5046647;28;20021;-61
2022/05/06 00:14:18;;;;;;;31.05;11.80;;;;;;;11.75;82.21;102675.59;5047268;28;20025;-63
2022/05/06 00:16:43;;;;;;;19.38;11.27;;;;;;;11.77;82.28;102678.22;5046811;28;20395;-63
2022/05/06 00:19:09;;;;;;;24.65;12.70;;;;;;;11.73;82.39;102681.78;5047125;28;20033;-61
2022/05/06 00:21:34;;;;;;;30.35;15.38;;;;;;;11.52;82.70;102677.56;5045992;28;20031;-62
2022/05/06 00:23:59;;;;;;;27.38;14.10;;;;;;;11.51;83.56;102676.72;5047058;28;20029;-61
2022/05/06 00:26:25;;;;;;;30.15;10.63;;;;;;;11.72;82.84;102678.28;5045800;28;20013;-61
2022/05/06 00:28:50;;;;;;;18.88;10.40;;;;;;;11.81;82.67;102682.63;5048223;28;20976;-63
2022/05/06 00:31:15;;;;;;;23.05;12.95;;;;;;;11.72;82.61;102670.38;5046884;28;20025;-62
2022/05/06 00:33:43;;;;;;;28.55;13.23;;;;;;;11.63;82.87;102671.31;5046964;28;20037;-62
2022/05/06 00:36:08;;;;;;;38.05;16.00;;;;;;;11.51;83.40;102668.78;5046166;28;20129;-61
2022/05/06 00:38:33;;;;;;;29.50;13.25;;;;;;;11.43;83.80;102667.97;5046743;28;20523;-63
2022/05/06 00:40:59;;;;;;;30.90;14.93;;;;;;;11.41;83.98;102662.69;5045243;28;20032;-61
2022/05/06 00:43:25;;;;;;;23.85;12.85;;;;;;;11.43;83.88;102662.69;5046075;28;20410;-61
2022/05/06 00:45:54;;;;;;;32.20;14.30;;;;;;;11.49;84.01;102657.34;5046873;28;20025;-62
2022/05/06 00:48:31;;;;;;;19.27;9.95;;;;;;;11.56;83.27;102659.06;5044621;28;20029;-62
2022/05/06 00:51:00;;;;;;;22.80;11.18;;;;;;;11.62;82.37;102661.66;5046268;28;20048;-61
2022/05/06 00:53:26;;;;;;;21.90;11.10;;;;;;;11.56;82.50;102660.84;5040442;28;20029;-62
2022/05/06 00:55:51;;;;;;;20.83;10.88;;;;;;;11.44;83.21;102661.81;5045706;28;20570;-62
2022/05/06 00:58:18;;;;;;;22.15;10.35;;;;;;;11.48;82.77;102663.53;5044422;28;20100;-63
2022/05/06 01:00:43;;;;;;;19.52;10.43;;;;;;;11.43;83.03;102660.94;5047012;28;20021;-66
2022/05/06 01:03:08;;;;;;;32.97;11.93;;;;;;;11.38;83.44;102666.25;5031401;28;20034;-61
2022/05/06 01:05:34;;;;;;;23.35;8.77;;;;;;;11.47;83.32;102667.06;5026368;28;20025;-63
2022/05/06 01:08:00;;;;;;;40.95;13.10;;;;;;;11.42;83.39;102666.22;5024742;28;20028;-61
2022/05/06 01:10:25;;;;;;;61.42;16.17;;;;;;;11.37;83.72;102663.63;5041687;28;20031;-62
2022/05/06 01:12:51;;;;;;;61.95;15.38;;;;;;;11.42;84.28;102667.09;5045476;28;20120;-61
2022/05/06 01:15:20;;;;;;;24.25;10.90;;;;;;;11.61;83.71;102677.50;5044471;28;20013;-63
2022/05/06 01:17:46;;;;;;;27.70;12.00;;;;;;;11.62;83.71;102674.84;5044854;28;20073;-62
2022/05/06 01:20:15;;;;;;;30.08;12.68;;;;;;;11.72;82.87;102672.13;5045819;28;20036;-61
2022/05/06 01:22:42;;;;;;;28.98;14.75;;;;;;;11.69;83.26;102665.13;5045740;28;20491;-62
2022/05/06 01:25:07;;;;;;;34.85;13.07;;;;;;;11.76;82.86;102665.91;5043465;28;20049;-63
2022/05/06 01:27:35;;;;;;;56.15;14.60;;;;;;;11.56;83.22;102666.97;5045367;28;20524;-63
2022/05/06 01:30:01;;;;;;;27.10;14.38;;;;;;;11.61;83.25;102669.56;5045887;28;20033;-62
2022/05/06 01:32:27;;;;;;;31.80;16.05;;;;;;;11.61;83.77;102669.56;5046957;28;20099;-61
2022/05/06 01:34:54;;;;;;;35.05;15.40;;;;;;;11.54;84.34;102671.41;5044396;28;20029;-61
2022/05/06 01:37:22;;;;;;;27.23;13.13;;;;;;;11.66;83.97;102670.44;5045730;28;20030;-62
2022/05/06 01:39:52;;;;;;;32.90;13.07;;;;;;;11.75;83.85;102674.75;5044321;28;20399;-62
2022/05/06 01:42:20;;;;;;;51.13;16.88;;;;;;;11.69;84.08;102672.16;5044448;28;20029;-63
2022/05/06 01:44:47;;;;;;;89.67;15.27;;;;;;;11.63;83.63;102668.66;5044326;28;20052;-63
2022/05/06 01:47:17;;;;;;;44.85;14.15;;;;;;;11.60;83.28;102659.91;5044941;28;20032;-63
2022/05/06 01:49:43;;;;;;;26.98;12.75;;;;;;;11.46;83.83;102670.59;5045322;28;20021;-62
2022/05/06 01:52:15;;;;;;;39.25;12.45;;;;;;;11.55;83.24;102666.97;5045275;28;20032;-61
2022/05/06 01:54:41;;;;;;;42.25;14.55;;;;;;;11.44;83.81;102675.00;5044695;28;20484;-62
2022/05/06 01:57:06;;;;;;;63.55;15.85;;;;;;;11.43;83.59;102678.53;5044654;28;20083;-61
2022/05/06 01:59:31;;;;;;;28.10;13.98;;;;;;;11.51;83.71;102679.34;5044115;28;20021;-63
2022/05/06 02:01:57;;;;;;;38.30;13.07;;;;;;;11.57;83.44;102678.41;5045424;28;20029;-62
2022/05/06 02:07:06;;;;;;;41.35;15.02;;;;;;;11.49;83.43;102682.00;5045961;28;20036;-62
2022/05/06 02:09:31;;;;;;;27.02;12.10;;;;;;;11.60;82.84;102676.66;5043933;28;20033;-64
2022/05/06 02:11:57;;;;;;;38.38;17.13;;;;;;;11.56;83.34;102677.53;5046399;28;20033;-61
2022/05/06 02:14:22;;;;;;;49.47;16.40;;;;;;;11.53;83.60;102677.56;5044709;28;20510;-62
2022/05/06 02:16:48;;;;;;;47.83;16.75;;;;;;;11.53;83.73;102668.78;5046033;28;20491;-62
2022/05/06 02:19:13;;;;;;;45.17;17.17;;;;;;;11.49;84.09;102668.81;5048505;28;20033;-62
2022/05/06 02:21:39;;;;;;;29.98;13.65;;;;;;;11.56;83.87;102669.63;5049426;28;20491;-61
2022/05/06 02:24:04;;;;;;;45.85;17.83;;;;;;;11.57;83.97;102665.22;5047989;28;20086;-61
2022/05/06 02:26:30;;;;;;;56.17;18.30;;;;;;;11.58;84.57;102666.97;5047885;28;20040;-62
2022/05/06 02:28:55;;;;;;;44.58;16.48;;;;;;;11.74;82.88;102665.94;5048525;28;20320;-62
2022/05/06 02:34:04;;;;;;;40.50;15.57;;;;;;;11.59;83.63;102672.22;5039907;28;20363;-60
2022/05/06 02:36:30;;;;;;;45.00;16.30;;;;;;;11.71;83.55;102662.47;5047803;28;20057;-61
2022/05/06 02:38:55;;;;;;;56.75;16.52;;;;;;;11.67;83.38;102668.63;5046521;28;20033;-63
2022/05/06 02:41:20;;;;;;;30.67;12.73;;;;;;;11.74;83.30;102673.84;5048051;28;20549;-62
2022/05/06 02:43:46;;;;;;;31.48;14.85;;;;;;;11.74;82.89;102667.72;5047912;28;20025;-62
2022/05/06 02:46:11;;;;;;;33.38;12.40;;;;;;;11.80;82.76;102670.28;5048009;28;20061;-61
2022/05/06 02:48:36;;;;;;;50.75;14.25;;;;;;;11.73;82.49;102673.88;5048278;28;20124;-61
2022/05/06 02:51:02;;;;;;;34.95;13.73;;;;;;;11.71;82.45;102673.88;5046015;28;20108;-63
2022/05/06 02:53:27;;;;;;;47.33;14.60;;;;;;;11.71;82.61;102678.31;5048912;28;20029;-61
2022/05/06 02:55:52;;;;;;;34.70;14.88;;;;;;;11.75;82.96;102680.88;5046400;28;20491;-62
2022/05/06 02:58:18;;;;;;;35.08;14.77;;;;;;;11.75;82.83;102680.03;5047159;28;20033;-62
2022/05/06 03:00:43;;;;;;;36.08;14.38;;;;;;;11.72;83.01;102674.78;5048626;28;20025;-61
2022/05/06 03:03:08;;;;;;;39.80;16.67;;;;;;;11.80;83.20;102675.56;5047665;28;20028;-62
2022/05/06 03:05:34;;;;;;;49.90;19.55;;;;;;;11.71;83.36;102676.53;5048012;28;20056;-63
2022/05/06 03:07:59;;;;;;;45.47;16.05;;;;;;;11.82;83.59;102678.19;5048188;28;20166;-62
2022/05/06 03:10:25;;;;;;;57.88;19.02;;;;;;;11.90;83.53;102675.47;5046434;28;20025;-63
2022/05/06 03:12:55;;;;;;;53.25;19.48;;;;;;;11.85;83.46;102676.41;5047296;28;20029;-63
2022/05/06 03:15:21;;;;;;;60.25;19.75;;;;;;;11.92;83.65;102671.91;5046248;28;20033;-63
2022/05/06 03:17:46;;;;;;;69.22;24.45;;;;;;;11.97;83.12;102672.75;5048607;28;20328;-61
2022/05/06 03:20:11;;;;;;;56.30;17.98;;;;;;;11.91;83.09;102675.47;5047002;28;20075;-63
2022/05/06 03:22:46;;;;;;;62.03;18.75;;;;;;;11.92;83.00;102673.72;5048678;28;20029;-62
2022/05/06 03:25:12;;;;;;;41.25;16.48;;;;;;;11.88;83.03;102670.22;5046091;28;20078;-62
2022/05/06 03:30:21;;;;;;;66.45;18.80;;;;;;;11.84;83.01;102665.84;5046655;28;20110;-63
2022/05/06 03:32:47;;;;;;;52.75;21.25;;;;;;;11.76;83.34;102665.91;5048171;28;20046;-63
2022/05/06 03:35:12;;;;;;;68.47;23.23;;;;;;;11.76;83.51;102671.19;5046459;28;20368;-63
2022/05/06 03:37:38;;;;;;;61.00;21.27;;;;;;;11.73;83.64;102672.13;5048324;28;20063;-62
2022/05/06 03:40:05;;;;;;;59.75;18.15;;;;;;;11.76;83.71;102671.19;5045408;28;20475;-63
2022/05/06 03:42:30;;;;;;;54.90;21.10;;;;;;;11.87;83.25;102666.69;5047240;28;20055;-61
2022/05/06 03:44:55;;;;;;;59.92;22.38;;;;;;;11.91;83.17;102664.91;5046615;28;20021;-64
2022/05/06 03:47:21;;;;;;;57.70;23.48;;;;;;;11.94;83.12;102663.97;5048032;28;20039;-63
2022/05/06 03:51:20;;;;;;;58.47;21.48;;;;;;;11.95;82.99;102671.88;5046448;28;20074;-63
2022/05/06 03:52:33;;;;;;;57.00;22.55;;;;;;;11.89;83.15;102666.66;5047989;28;20048;-63
2022/05/06 03:54:58;;;;;;;41.28;17.35;;;;;;;11.92;82.69;102660.50;5046025;28;20029;-63
2022/05/06 03:57:24;;;;;;;36.15;18.25;;;;;;;11.94;82.41;102666.63;5047699;28;20027;-62
2022/05/06 03:59:49;;;;;;;50.33;18.75;;;;;;;11.80;82.95;102661.50;5046802;28;20032;-64
2022/05/06 04:02:15;;;;;;;38.80;19.85;;;;;;;11.78;82.55;102668.56;5047046;28;20040;-62
2022/05/06 04:04:42;;;;;;;49.35;18.65;;;;;;;11.79;82.44;102660.59;5046995;28;20108;-61
2022/05/06 04:07:07;;;;;;;31.70;15.40;;;;;;;11.67;82.97;102661.59;5046573;28;20415;-64
2022/05/06 04:09:32;;;;;;;36.17;17.08;;;;;;;11.71;82.48;102659.81;5046238;28;20040;-62
2022/05/06 04:11:59;;;;;;;38.55;19.08;;;;;;;11.61;83.17;102659.91;5047075;28;20087;-63
2022/05/06 04:14:25;;;;;;;32.10;16.73;;;;;;;11.61;83.00;102664.28;5047216;28;20021;-63
2022/05/06 04:16:50;;;;;;;33.47;16.70;;;;;;;11.63;83.08;102673.09;5046280;28;20051;-63
2022/05/06 04:19:15;;;;;;;32.28;16.45;;;;;;;11.63;82.89;102679.22;5042473;28;20139;-63
2022/05/06 04:24:25;;;;;;;33.78;15.38;;;;;;;11.63;82.78;102683.66;5026702;28;20040;-61
2022/05/06 04:26:50;;;;;;;34.55;12.80;;;;;;;11.56;82.30;102682.81;5027028;28;20130;-63
2022/05/06 04:29:15;;;;;;;111.05;16.45;;;;;;;11.54;82.10;102679.31;5027186;28;20042;-64
2022/05/06 04:31:41;;;;;;;44.35;13.90;;;;;;;11.49;82.40;102670.56;5026831;28;20038;-63
2022/05/06 04:34:07;;;;;;;22.02;11.43;;;;;;;11.44;82.24;102670.59;5041941;28;20385;-63
2022/05/06 04:36:32;;;;;;;78.25;15.63;;;;;;;11.19;83.05;102676.06;5027316;28;20032;-62
2022/05/06 04:38:58;;;;;;;27.67;11.57;;;;;;;11.28;82.87;102683.03;5027470;28;20113;-62
2022/05/06 04:41:24;;;;;;;26.73;12.75;;;;;;;11.30;82.58;102685.66;5028069;28;20030;-63
2022/05/06 04:43:49;;;;;;;58.67;12.23;;;;;;;11.35;82.31;102695.28;5027953;28;20044;-62
2022/05/06 04:46:15;;;;;;;58.17;10.35;;;;;;;11.37;82.16;102696.16;5027631;28;20042;-61
2022/05/06 04:48:40;;;;;;;32.40;8.55;;;;;;;11.27;81.53;102691.84;5026011;28;20033;-62
2022/05/06 04:51:06;;;;;;;29.75;9.65;;;;;;;11.30;81.66;102696.22;5026743;28;20495;-63
2022/05/06 04:53:31;;;;;;;40.28;9.07;;;;;;;11.23;81.26;102701.53;5025450;28;20384;-64
2022/05/06 04:55:56;;;;;;;33.92;9.77;;;;;;;11.03;81.02;102696.41;5026566;28;20021;-61
2022/05/06 04:58:22;;;;;;;19.90;8.52;;;;;;;10.96;82.20;102702.59;5026857;28;20022;-61
2022/05/06 05:00:48;;;;;;;18.77;7.72;;;;;;;11.14;81.88;102701.63;5027266;28;20029;-62
2022/05/06 05:03:13;;;;;;;11.80;8.05;;;;;;;11.20;81.71;102696.28;5042618;28;20117;-62
2022/05/06 05:05:38;;;;;;;14.18;8.25;;;;;;;11.20;81.58;102698.06;5026678;28;20037;-61
2022/05/06 05:08:04;;;;;;;20.83;10.38;;;;;;;11.27;81.36;102694.50;5027435;28;20036;-62
2022/05/06 05:10:30;;;;;;;38.47;9.15;;;;;;;11.11;81.10;102699.00;5026534;28;20498;-63
2022/05/06 05:12:55;;;;;;;13.15;7.65;;;;;;;11.14;80.74;102703.38;5026455;28;20032;-62
2022/05/06 05:15:20;;;;;;;16.65;7.35;;;;;;;11.25;80.39;102701.53;5026409;28;20898;-62
2022/05/06 05:17:46;;;;;;;16.50;8.90;;;;;;;11.18;80.63;102703.34;5026512;28;20045;-62
2022/05/06 05:20:12;;;;;;;34.78;9.35;;;;;;;11.20;81.16;102709.47;5025873;28;20491;-63
2022/05/06 05:22:38;;;;;;;33.40;8.65;;;;;;;11.30;80.75;102712.94;5026900;28;20025;-63
2022/05/06 05:25:04;;;;;;;9.32;7.25;;;;;;;11.41;80.69;102706.72;5025960;28;20025;-63
2022/05/06 05:27:33;;;;;;;28.70;9.40;;;;;;;11.36;80.35;102705.00;5027296;28;20476;-63
2022/05/06 05:29:59;;;;;;;24.25;9.38;;;;;;;11.30;80.74;102704.13;5027736;28;20029;-61
2022/05/06 05:32:25;;;;;;;39.97;9.40;;;;;;;11.45;80.75;102708.44;5026536;28;20049;-62
2022/05/06 05:34:50;;;;;;;22.08;10.93;;;;;;;11.55;80.71;102712.75;5026164;28;20427;-62
2022/05/06 05:37:16;;;;;;;33.63;11.45;;;;;;;11.67;80.74;102710.88;5026336;28;20040;-62
2022/05/06 05:39:41;;;;;;;16.88;9.38;;;;;;;11.79;80.15;102708.16;5025972;28;20029;-63
2022/05/06 05:42:07;;;;;;;27.38;11.25;;;;;;;11.78;80.10;102711.69;5025953;28;20049;-62
2022/05/06 05:50:02;;;;;;;11.55;7.55;;;;;;;11.92;79.98;102711.53;5025766;28;20048;-63
2022/05/06 05:52:28;;;;;;;17.42;9.15;;;;;;;11.99;78.78;102707.09;5027801;28;20025;-62
2022/05/06 05:54:54;;;;;;;21.23;9.88;;;;;;;11.98;79.00;102705.34;5029514;28;20372;-62
2022/05/06 05:57:19;;;;;;;21.25;9.32;;;;;;;11.99;79.03;102710.63;5029578;28;20021;-62
2022/05/06 05:59:44;;;;;;;17.70;9.43;;;;;;;12.19;78.69;102713.97;5030010;28;20037;-62
2022/05/06 06:02:13;;;;;;;20.08;11.75;;;;;;;12.10;79.04;102712.31;5029717;28;20022;-62
2022/05/06 06:04:42;;;;;;;23.30;10.60;;;;;;;12.33;78.69;102714.69;5044836;28;20100;-62
2022/05/06 06:07:07;;;;;;;14.35;8.30;;;;;;;12.54;77.66;102719.75;5030042;28;20025;-62
2022/05/06 06:09:32;;;;;;;12.55;7.95;;;;;;;12.55;76.92;102718.88;5027998;28;20412;-62
2022/05/06 06:11:58;;;;;;;12.05;8.55;;;;;;;12.55;76.73;102726.81;5029766;28;20083;-62
2022/05/06 06:14:23;;;;;;;11.57;7.65;;;;;;;12.58;77.02;102724.97;5033472;28;20407;-61
2022/05/06 06:16:50;;;;;;;16.73;10.35;;;;;;;12.47;75.69;102718.94;5036543;28;20032;-63
2022/05/06 06:19:16;;;;;;;17.00;10.40;;;;;;;12.58;75.74;102722.34;5047665;28;20033;-62
2022/05/06 06:21:41;;;;;;;15.95;11.82;;;;;;;12.49;76.30;102725.97;5035243;28;20360;-63
2022/05/06 06:24:06;;;;;;;13.40;9.30;;;;;;;12.58;76.53;102734.69;5027730;28;20061;-61
2022/05/06 06:26:32;;;;;;;19.88;11.35;;;;;;;12.64;76.03;102732.84;5028598;28;20017;-64
2022/05/06 06:28:58;;;;;;;17.55;11.57;;;;;;;12.72;75.86;102732.75;5028791;28;20056;-61
2022/05/06 06:31:23;;;;;;;21.83;13.32;;;;;;;12.75;76.49;102729.19;5028364;28;20080;-62
2022/05/06 06:33:49;;;;;;;19.48;11.15;;;;;;;12.85;75.55;102737.88;5028102;28;20058;-61
2022/05/06 06:36:14;;;;;;;21.48;12.43;;;;;;;13.02;75.40;102741.19;5027894;28;20029;-62
2022/05/06 06:38:39;;;;;;;16.38;11.00;;;;;;;12.95;75.67;102734.22;5027752;28;20022;-62
2022/05/06 06:41:05;;;;;;;21.88;13.48;;;;;;;13.05;74.46;102734.97;5028387;28;20423;-62
2022/05/06 06:43:30;;;;;;;20.48;13.02;;;;;;;12.96;74.95;102745.66;5043001;28;20086;-61
2022/05/06 06:45:56;;;;;;;23.00;13.68;;;;;;;13.19;75.08;102749.78;5046373;28;20128;-62
2022/05/06 06:48:23;;;;;;;17.40;11.38;;;;;;;13.27;74.56;102746.13;5049085;28;20044;-63
2022/05/06 06:50:48;;;;;;;17.50;11.77;;;;;;;13.46;74.11;102744.97;5047920;28;20103;-62
2022/05/06 06:53:14;;;;;;;21.08;13.20;;;;;;;13.49;74.14;102750.22;5048038;28;20442;-62
2022/05/06 06:55:39;;;;;;;19.95;13.45;;;;;;;13.71;73.50;102736.66;5048094;28;20019;-62
2022/05/06 06:58:06;;;;;;;24.20;14.73;;;;;;;13.70;72.75;102749.00;5048180;28;20032;-62
2022/05/06 07:00:32;;;;;;;21.02;14.13;;;;;;;13.65;73.28;102740.28;5028867;28;20017;-63
2022/05/06 07:02:57;;;;;;;21.40;14.18;;;;;;;13.89;72.78;102744.31;5028183;28;20034;-62
2022/05/06 07:05:23;;;;;;;26.30;14.82;;;;;;;14.04;72.81;102752.88;5028188;28;20026;-62
2022/05/06 07:13:17;;;;;;;28.48;15.48;;;;;;;14.08;73.09;102754.56;5043470;28;20169;-63
2022/05/06 07:15:42;;;;;;;27.30;15.30;;;;;;;14.02;73.23;102755.53;5047702;28;20017;-63
2022/05/06 07:18:08;;;;;;;19.00;12.55;;;;;;;14.38;72.53;102752.25;5046250;28;20029;-62
2022/05/06 07:20:33;;;;;;;22.27;14.65;;;;;;;14.55;71.13;102748.38;5046898;28;20025;-62
2022/05/06 07:22:59;;;;;;;23.55;15.18;;;;;;;14.42;71.62;102752.19;5048221;28;20033;-62
2022/05/06 07:25:24;;;;;;;24.88;14.88;;;;;;;14.27;72.09;102743.63;5045568;28;20412;-61
2022/05/06 07:27:49;;;;;;;26.02;15.27;;;;;;;14.06;72.92;102751.06;5047255;28;20120;-62
2022/05/06 07:30:15;;;;;;;23.40;15.07;;;;;;;13.78;73.11;102740.94;5046904;28;20064;-61
2022/05/06 07:32:40;;;;;;;26.50;16.25;;;;;;;13.86;73.00;102741.69;5046914;28;20045;-61
2022/05/06 07:35:06;;;;;;;24.08;16.27;;;;;;;13.68;74.60;102747.28;5046994;28;20060;-61
2022/05/06 07:37:33;;;;;;;21.55;15.20;;;;;;;13.56;75.15;102741.31;5048423;28;20498;-62
2022/05/06 07:40:03;;;;;;;25.23;16.33;;;;;;;13.63;74.64;102742.94;5046432;28;20025;-61
2022/05/06 07:42:32;;;;;;;20.55;13.30;;;;;;;13.89;73.53;102738.13;5045289;28;20048;-62
2022/05/06 07:44:57;;;;;;;23.80;16.17;;;;;;;13.75;73.90;102738.34;5047678;28;20067;-61
2022/05/06 07:47:23;;;;;;;25.50;16.45;;;;;;;13.87;73.95;102732.84;5046626;28;20414;-61
2022/05/06 07:49:48;;;;;;;20.77;13.18;;;;;;;14.08;72.90;102736.00;5044350;28;20107;-62
2022/05/06 07:52:14;;;;;;;21.10;13.32;;;;;;;14.10;72.20;102744.81;5046014;28;20025;-61
2022/05/06 07:54:39;;;;;;;22.65;14.82;;;;;;;14.00;71.99;102736.13;5045200;28;20027;-61
2022/05/06 07:57:04;;;;;;;20.60;14.15;;;;;;;14.07;72.21;102736.03;5045716;28;20107;-62
2022/05/06 07:59:29;;;;;;;23.50;14.45;;;;;;;14.23;71.86;102728.66;5047085;28;20013;-62
2022/05/06 08:04:40;;;;;;;25.20;14.80;;;;;;;14.14;73.02;102727.94;5047181;28;20518;-60
2022/05/06 08:07:06;;;;;;;25.83;14.52;;;;;;;14.24;71.92;102725.97;5045585;28;20025;-62
2022/05/06 08:09:33;;;;;;;20.70;12.77;;;;;;;14.49;71.47;102732.59;5025803;28;20056;-63
2022/05/06 08:11:59;;;;;;;28.45;15.43;;;;;;;14.32;71.81;102728.50;5045248;28;20586;-62
2022/05/06 08:14:25;;;;;;;23.13;14.50;;;;;;;14.39;71.75;102721.31;5044053;28;20108;-63
2022/05/06 08:16:51;;;;;;;23.23;14.23;;;;;;;14.43;72.21;102722.09;5043295;28;20029;-60
2022/05/06 08:19:17;;;;;;;22.77;13.30;;;;;;;14.77;71.52;102716.09;5044167;28;20245;-63
2022/05/06 08:21:43;;;;;;;19.60;13.10;;;;;;;14.88;70.58;102714.13;5043556;28;20415;-63
2022/05/06 08:24:09;;;;;;;19.35;11.65;;;;;;;15.11;69.71;102715.34;5045680;28;20029;-62
2022/05/06 08:26:35;;;;;;;18.23;11.70;;;;;;;15.16;69.50;102712.59;5047204;28;20029;-62
2022/05/06 08:29:00;;;;;;;20.88;11.50;;;;;;;15.39;68.76;102711.19;5045049;28;20543;-60
2022/05/06 08:31:27;;;;;;;13.98;9.68;;;;;;;15.65;68.34;102710.53;5043533;28;20025;-61
2022/05/06 08:33:53;;;;;;;14.48;9.63;;;;;;;15.75;66.22;102710.31;5045631;28;20541;-61
2022/05/06 08:36:19;;;;;;;12.25;9.23;;;;;;;15.98;65.63;102711.53;5045715;28;20033;-62
2022/05/06 08:38:45;;;;;;;13.23;9.35;;;;;;;16.20;65.12;102716.25;5030229;28;20021;-60
2022/05/06 08:41:10;;;;;;;17.73;10.77;;;;;;;16.12;64.75;102719.97;5040907;28;20530;-64
2022/05/06 08:43:37;;;;;;;16.83;9.93;;;;;;;16.40;64.34;102715.66;5025985;28;20029;-64
2022/05/06 08:51:33;;;;;;;19.30;10.38;;;;;;;16.58;63.60;102719.56;5047061;28;20048;-65
2022/05/06 08:53:59;;;;;;;17.27;10.73;;;;;;;16.65;63.44;102715.81;5047472;28;20035;-67
2022/05/06 08:56:24;;;;;;;18.27;11.73;;;;;;;16.80;63.39;102713.63;5047588;28;20100;-65
2022/05/06 08:58:49;;;;;;;18.48;11.15;;;;;;;16.91;62.98;102700.84;5041487;28;20041;-67
2022/05/06 09:01:17;;;;;;;16.95;11.52;;;;;;;16.99;63.03;102710.38;5047177;28;20029;-63
2022/05/06 09:03:48;;;;;;;18.63;12.43;;;;;;;16.86;62.76;102697.44;5045033;28;20033;-63
2022/05/06 09:06:20;;;;;;;14.85;11.05;;;;;;;17.15;61.75;102702.81;5045010;28;20033;-62
2022/05/06 09:08:46;;;;;;;15.20;11.05;;;;;;;17.29;60.94;102705.03;5061582;28;20444;-63
2022/05/06 09:11:12;;;;;;;25.70;11.55;;;;;;;17.50;60.56;102707.91;5044761;28;20119;-63
2022/05/06 09:13:39;;;;;;;18.35;11.43;;;;;;;17.51;60.91;102712.31;5046963;28;20108;-68
2022/05/06 09:19:19;;;;;;;14.20;10.05;;;;;;;17.67;59.22;102702.03;5045873;28;20055;-62
2022/05/06 09:22:05;;;;;;;13.10;9.90;;;;;;;17.72;58.66;102699.16;5045319;28;20040;-65
2022/05/06 09:24:31;;;;;;;12.77;9.65;;;;;;;17.89;58.56;102698.59;5045137;28;20091;-61
2022/05/06 09:27:07;;;;;;;12.00;9.07;;;;;;;17.91;59.06;102710.09;5048077;28;20028;-63
2022/05/06 09:29:36;;;;;;;14.07;9.98;;;;;;;18.11;57.60;102711.16;5048901;28;20613;-63
2022/05/06 09:32:13;;;;;;;15.05;9.98;;;;;;;18.08;57.12;102700.56;5048910;28;20033;-63
2022/05/06 09:34:42;;;;;;;14.43;8.55;;;;;;;18.14;57.53;102701.28;5042799;28;20072;-64
2022/05/06 09:37:08;;;;;;;11.77;8.13;;;;;;;18.20;56.97;102697.50;5048582;28;20468;-64
2022/05/06 09:39:36;;;;;;;16.00;8.98;;;;;;;18.38;57.06;102698.63;5048179;28;20025;-66
2022/05/06 09:42:04;;;;;;;13.20;8.57;;;;;;;18.34;56.52;102698.78;5049907;28;20029;-64
2022/05/06 09:44:29;;;;;;;15.73;8.95;;;;;;;18.43;56.69;102695.78;5048886;28;20021;-63
2022/05/06 09:47:09;;;;;;;9.00;6.97;;;;;;;18.67;56.02;102699.28;5048461;28;20029;-62
2022/05/06 09:49:42;;;;;;;17.13;7.95;;;;;;;18.90;55.14;102694.00;5049554;28;20033;-61
2022/05/06 09:52:16;;;;;;;12.38;8.50;;;;;;;18.89;55.08;102690.47;5049454;28;20037;-61
2022/05/06 09:54:43;;;;;;;10.13;8.32;;;;;;;19.08;54.34;102695.06;5047847;28;20030;-61
2022/05/06 09:57:14;;;;;;;9.20;7.85;;;;;;;19.26;53.99;102685.44;5048871;28;20033;-63
2022/05/06 09:59:40;;;;;;;10.80;7.65;;;;;;;19.42;53.60;102680.31;5049168;28;20057;-62
2022/05/06 10:02:06;;;;;;;10.20;8.20;;;;;;;19.57;51.97;102677.94;5048061;28;20068;-62
2022/05/06 10:04:31;;;;;;;11.68;7.82;;;;;;;19.50;53.62;102671.97;5050421;28;20092;-62
2022/05/06 10:07:03;;;;;;;13.00;8.05;;;;;;;19.52;53.43;102675.47;5048712;28;20051;-64
2022/05/06 10:09:32;;;;;;;10.40;7.75;;;;;;;19.69;52.18;102684.56;5038393;28;20040;-61
2022/05/06 10:11:58;;;;;;;;;;;;;;;19.80;52.36;102679.59;5043199;28;20024;-64
2022/05/06 10:14:23;;;;;;;10.77;8.30;;;;;;;19.90;51.68;102677.38;5044546;28;19923;-61
2022/05/06 10:16:49;;;;;;;14.15;8.88;;;;;;;20.19;51.21;102669.88;5029838;28;20496;-63
2022/05/06 10:19:28;;;;;;;13.95;8.63;;;;;;;20.27;51.73;102676.69;5039291;28;20064;-67
2022/05/06 10:21:53;;;;;;;;;;;;;;;20.44;50.39;102671.41;5041827;28;20384;-63
2022/05/06 10:24:20;;;;;;;15.50;9.52;;;;;;;20.45;50.86;102675.84;5044149;28;20346;-69
2022/05/06 10:26:49;;;;;;;13.20;8.70;;;;;;;20.65;49.87;102676.69;5056654;28;20501;-61
2022/05/06 10:32:26;;;;;;;10.57;7.75;;;;;;;21.06;48.80;102666.72;5042384;28;20052;-63
2022/05/06 10:34:54;;;;;;;13.20;7.90;;;;;;;21.14;48.85;102667.25;5048060;28;20115;-63
2022/05/06 10:37:20;;;;;;;13.68;8.05;;;;;;;21.37;47.19;102664.34;5046772;28;20021;-64
2022/05/06 10:39:45;;;;;;;13.07;7.90;;;;;;;21.48;46.94;102655.72;5045595;28;20510;-65
2022/05/06 10:42:13;;;;;;;9.93;7.93;;;;;;;21.82;46.92;102653.97;5047525;28;20013;-65
2022/05/06 10:44:50;;;;;;;12.18;8.73;;;;;;;21.77;46.85;102658.75;5048401;28;20367;-64
2022/05/06 10:47:16;;;;;;;12.32;9.30;;;;;;;21.88;46.09;102650.13;5048432;28;20014;-63
2022/05/06 10:49:46;;;;;;;14.17;10.00;;;;;;;21.82;46.61;102654.84;5048353;28;20041;-63
2022/05/06 10:52:14;;;;;;;13.55;8.32;;;;;;;21.46;47.61;102651.31;5048809;28;20275;-63
2022/05/06 10:54:40;;;;;;;16.83;9.30;;;;;;;21.82;47.08;102656.66;5047933;28;20108;-63
2022/05/06 10:57:06;;;;;;;14.82;9.07;;;;;;;22.22;45.67;102659.03;5048257;28;20029;-63
2022/05/06 10:59:51;;;;;;;11.30;8.75;;;;;;;22.42;44.59;102652.53;5047565;28;20044;-65
2022/05/06 11:02:17;;;;;;;14.40;8.80;;;;;;;22.37;45.82;102654.63;5041811;28;20396;-62
2022/05/06 11:04:49;;;;;;;9.18;7.32;;;;;;;23.07;43.87;102661.44;5028227;28;20088;-62
2022/05/06 11:07:17;;;;;;;12.30;8.48;;;;;;;23.23;43.12;102649.78;5029327;28;20056;-63
2022/05/06 11:09:42;;;;;;;13.43;8.80;;;;;;;23.55;42.00;102643.44;5044716;28;20028;-63
2022/05/06 11:12:08;;;;;;;12.82;8.98;;;;;;;23.54;42.37;102645.25;5048073;28;20542;-63
2022/05/06 11:14:33;;;;;;;13.52;8.93;;;;;;;23.51;42.94;102648.13;5046482;28;20052;-64
2022/05/06 11:17:22;;;;;;;12.70;8.00;;;;;;;24.18;41.00;102643.19;5048158;28;20025;-64
2022/05/06 11:19:47;;;;;;;14.70;8.27;;;;;;;24.37;40.58;102637.50;5048527;28;20021;-63
2022/05/06 11:22:13;;;;;;;12.73;8.60;;;;;;;24.44;40.42;102638.81;5047545;28;20040;-64
2022/05/06 11:24:38;;;;;;;12.43;9.07;;;;;;;24.28;40.61;102643.47;5046457;28;20024;-64
2022/05/06 11:27:13;;;;;;;12.45;8.95;;;;;;;24.63;40.16;102644.84;5048105;28;20040;-66
2022/05/06 11:29:58;;;;;;;11.70;8.93;;;;;;;24.54;39.93;102624.75;5046122;28;20021;-65
2022/05/06 11:32:26;;;;;;;11.02;8.57;;;;;;;24.22;41.68;102634.81;5046751;28;20091;-65
2022/05/06 11:35:10;;;;;;;12.60;8.20;;;;;;;24.31;40.55;102625.28;5047430;28;20045;-65
2022/05/06 11:37:39;;;;;;;11.18;8.82;;;;;;;24.45;39.94;102647.78;5045364;28;20025;-64
2022/05/06 11:42:49;;;;;;;12.15;9.38;;;;;;;23.71;41.56;102619.16;5046741;28;20059;-64
2022/05/06 11:48:07;;;;;;;11.07;8.35;;;;;;;23.76;41.45;102621.56;5045386;28;20064;-64
2022/05/06 11:50:33;;;;;;;9.75;7.88;;;;;;;23.66;42.06;102616.72;5047226;28;20028;-65
2022/05/06 11:53:01;;;;;;;12.23;8.68;;;;;;;23.37;44.16;102618.53;5045922;28;20017;-65